createdAt,value
2022-11-24T00:00:49.620Z,8.50
2022-11-24T00:03:58.939Z,9.43
2022-11-24T00:07:01.658Z,8.45
2022-11-24T00:10:05.014Z,9.38
2022-11-24T00:13:07.832Z,8.67
2022-11-24T00:16:19.375Z,8.20
2022-11-24T00:19:22.132Z,7.97
2022-11-24T00:22:24.892Z,7.57
2022-11-24T00:25:27.636Z,8.15
2022-11-24T00:28:30.372Z,7.20
2022-11-24T00:31:39.307Z,6.78
2022-11-24T00:34:42.137Z,5.82
2022-11-24T00:37:44.807Z,6.07
2022-11-24T00:40:47.553Z,5.32
2022-11-24T00:43:51.053Z,5.57
2022-11-24T00:46:53.946Z,4.97
2022-11-24T00:49:56.839Z,5.10
2022-11-24T00:52:59.561Z,4.93
2022-11-24T00:56:04.150Z,4.88
2022-11-24T00:59:06.869Z,4.93
2022-11-24T01:02:09.735Z,5.25
2022-11-24T01:05:12.709Z,5.85
2022-11-24T01:08:15.475Z,5.32
2022-11-24T01:11:50.422Z,5.28
2022-11-24T01:14:53.181Z,5.47
2022-11-24T01:17:56.798Z,5.90
2022-11-24T01:21:07.202Z,5.80
2022-11-24T01:24:13.399Z,5.65
2022-11-24T01:27:16.422Z,5.68
2022-11-24T01:30:19.200Z,5.73
2022-11-24T01:33:21.946Z,4.80
2022-11-24T01:36:26.524Z,5.72
2022-11-24T01:39:29.354Z,5.43
2022-11-24T01:42:51.713Z,5.53
2022-11-24T01:45:56.022Z,4.83
2022-11-24T01:49:19.122Z,5.55
2022-11-24T01:52:39.985Z,5.13
2022-11-24T01:55:42.789Z,5.30
2022-11-24T01:58:49.281Z,5.45
2022-11-24T02:01:53.495Z,5.20
2022-11-24T02:05:01.141Z,5.05
2022-11-24T02:08:05.230Z,5.35
2022-11-24T02:11:08.114Z,4.85
2022-11-24T02:14:14.201Z,4.68
2022-11-24T02:17:16.926Z,4.53
2022-11-24T02:20:19.839Z,5.38
2022-11-24T02:23:44.317Z,5.47
2022-11-24T02:26:49.801Z,4.90
2022-11-24T02:29:52.738Z,5.15
2022-11-24T02:32:55.743Z,5.13
2022-11-24T02:35:58.476Z,5.75
2022-11-24T02:39:01.507Z,5.38
2022-11-24T02:42:09.149Z,5.35
2022-11-24T02:45:13.011Z,4.70
2022-11-24T02:48:16.867Z,6.17
2022-11-24T02:51:19.990Z,6.22
2022-11-24T02:54:22.813Z,6.07
2022-11-24T02:57:25.594Z,5.60
2022-11-24T03:00:28.352Z,6.07
2022-11-24T03:03:31.618Z,5.73
2022-11-24T03:06:34.320Z,5.45
2022-11-24T03:09:38.462Z,6.00
2022-11-24T03:12:41.213Z,6.55
2022-11-24T03:15:44.085Z,6.40
2022-11-24T03:18:48.319Z,5.70
2022-11-24T03:21:51.409Z,6.40
2022-11-24T03:24:54.190Z,6.20
2022-11-24T03:27:58.305Z,6.07
2022-11-24T03:31:02.297Z,5.88
2022-11-24T03:34:05.199Z,5.53
2022-11-24T03:37:07.957Z,5.47
2022-11-24T03:40:11.095Z,4.93
2022-11-24T03:43:13.951Z,4.78
2022-11-24T03:46:16.701Z,5.50
2022-11-24T03:49:19.396Z,4.60
2022-11-24T03:52:22.120Z,4.63
2022-11-24T03:55:24.901Z,3.83
2022-11-24T03:58:28.390Z,4.50
2022-11-24T04:01:31.274Z,4.35
2022-11-24T04:04:34.574Z,4.60
2022-11-24T04:07:37.609Z,3.60
2022-11-24T04:10:40.406Z,3.55
2022-11-24T04:13:43.157Z,3.50
2022-11-24T04:16:45.821Z,3.60
2022-11-24T04:19:48.587Z,3.50
2022-11-24T04:22:52.147Z,3.80
2022-11-24T04:25:54.930Z,3.15
2022-11-24T04:28:57.761Z,3.83
2022-11-24T04:32:00.504Z,3.55
2022-11-24T04:35:04.528Z,3.10
2022-11-24T04:38:07.322Z,3.70
2022-11-24T04:41:10.141Z,3.30
2022-11-24T04:44:12.811Z,3.40
2022-11-24T04:47:21.631Z,2.78
2022-11-24T04:50:24.482Z,3.07
2022-11-24T04:53:27.169Z,3.00
2022-11-24T04:56:29.882Z,3.83
2022-11-24T04:59:32.855Z,3.72
2022-11-24T05:02:35.542Z,3.80
2022-11-24T05:05:38.267Z,2.77
2022-11-24T05:08:41.012Z,2.25
2022-11-24T05:11:44.372Z,2.70
2022-11-24T05:14:47.102Z,2.50
2022-11-24T05:17:49.845Z,2.90
2022-11-24T05:20:52.896Z,2.60
2022-11-24T05:23:55.717Z,2.58
2022-11-24T05:26:58.659Z,3.60
2022-11-24T05:30:01.607Z,2.50
2022-11-24T05:33:06.954Z,2.63
2022-11-24T05:36:29.987Z,2.77
2022-11-24T05:39:34.822Z,2.58
2022-11-24T05:42:46.268Z,2.97
2022-11-24T05:45:50.240Z,2.92
2022-11-24T05:48:53.142Z,3.17
2022-11-24T05:51:56.610Z,3.27
2022-11-24T05:54:59.426Z,3.58
2022-11-24T05:58:04.649Z,3.45
2022-11-24T06:01:07.819Z,3.17
2022-11-24T06:04:10.707Z,3.33
2022-11-24T06:07:13.955Z,2.77
2022-11-24T06:10:17.879Z,3.05
2022-11-24T06:13:20.777Z,2.90
2022-11-24T06:16:23.976Z,2.90
2022-11-24T06:19:27.178Z,3.00
2022-11-24T06:22:29.992Z,2.80
2022-11-24T06:25:32.884Z,3.03
2022-11-24T06:28:35.984Z,3.25
2022-11-24T06:31:38.906Z,3.67
2022-11-24T06:34:41.805Z,4.00
2022-11-24T06:37:45.896Z,4.30
2022-11-24T06:40:48.835Z,4.70
2022-11-24T06:43:51.606Z,4.95
2022-11-24T06:46:54.414Z,5.45
2022-11-24T06:49:57.222Z,6.40
2022-11-24T06:53:00.280Z,5.63
2022-11-24T06:56:07.458Z,5.65
2022-11-24T06:59:20.749Z,5.75
2022-11-24T07:02:27.603Z,5.72
2022-11-24T07:05:31.739Z,5.85
2022-11-24T07:08:34.558Z,6.10
2022-11-24T07:11:38.017Z,5.97
2022-11-24T07:14:40.954Z,6.10
2022-11-24T07:17:43.863Z,5.88
2022-11-24T07:20:46.742Z,5.80
2022-11-24T07:23:50.921Z,7.00
2022-11-24T07:26:53.788Z,6.85
2022-11-24T07:30:26.362Z,7.20
2022-11-24T07:33:32.869Z,6.72
2022-11-24T07:36:35.711Z,6.68
2022-11-24T07:39:38.808Z,6.20
2022-11-24T07:42:42.239Z,7.38
2022-11-24T07:46:21.667Z,6.38
2022-11-24T07:49:24.806Z,6.63
2022-11-24T07:52:27.676Z,6.40
2022-11-24T07:55:30.962Z,6.80
2022-11-24T07:58:36.208Z,5.45
2022-11-24T08:01:39.487Z,6.13
2022-11-24T08:04:43.825Z,6.07
2022-11-24T08:07:47.741Z,5.90
2022-11-24T08:10:51.741Z,6.97
2022-11-24T08:14:06.308Z,6.30
2022-11-24T08:17:09.883Z,6.30
2022-11-24T08:20:13.162Z,6.38
2022-11-24T08:23:16.297Z,6.00
2022-11-24T08:26:19.575Z,5.50
2022-11-24T08:29:22.469Z,6.43
2022-11-24T08:32:25.432Z,6.15
2022-11-24T08:35:29.397Z,5.45
2022-11-24T08:38:32.516Z,6.20
2022-11-24T08:41:36.064Z,6.80
2022-11-24T08:44:39.008Z,6.50
2022-11-24T08:47:41.708Z,6.90
2022-11-24T08:50:47.934Z,6.07
2022-11-24T08:53:58.523Z,6.07
2022-11-24T08:57:07.493Z,5.90
2022-11-24T09:04:39.228Z,5.55
2022-11-24T09:07:42.113Z,5.60
2022-11-24T09:10:45.624Z,5.10
2022-11-24T09:13:49.465Z,4.67
2022-11-24T09:16:52.497Z,5.10
2022-11-24T09:19:56.136Z,4.80
2022-11-24T09:22:58.941Z,5.63
2022-11-24T09:26:10.115Z,4.75
2022-11-24T09:29:13.891Z,4.57
2022-11-24T09:32:17.183Z,3.45
2022-11-24T09:35:20.224Z,3.97
2022-11-24T09:38:23.334Z,4.10
2022-11-24T09:41:41.738Z,3.60
2022-11-24T09:45:10.529Z,3.50
2022-11-24T09:48:21.883Z,4.88
2022-11-24T09:51:32.618Z,4.50
2022-11-24T09:54:38.708Z,4.18
2022-11-24T09:57:44.223Z,3.83
2022-11-24T10:00:58.844Z,3.40
2022-11-24T10:04:06.359Z,3.67
2022-11-24T10:07:38.282Z,4.32
2022-11-24T10:11:00.961Z,6.13
2022-11-24T10:14:39.572Z,6.78
2022-11-24T10:17:48.119Z,4.80
2022-11-24T10:21:25.177Z,4.85
2022-11-24T10:24:48.130Z,5.20
2022-11-24T10:28:03.990Z,4.68
2022-11-24T10:31:36.199Z,4.60
2022-11-24T10:34:44.128Z,3.20
2022-11-24T10:37:57.185Z,4.05
2022-11-24T10:41:14.673Z,3.80
2022-11-24T10:44:17.488Z,3.60
2022-11-24T10:47:22.979Z,3.85
2022-11-24T10:50:33.370Z,3.53
2022-11-24T10:53:41.244Z,3.20
2022-11-24T10:56:47.200Z,3.55
2022-11-24T10:59:50.252Z,3.72
2022-11-24T11:03:17.802Z,3.30
2022-11-24T11:06:29.488Z,2.63
2022-11-24T11:09:37.087Z,3.15
2022-11-24T11:12:45.022Z,3.28
2022-11-24T11:15:48.392Z,3.00
2022-11-24T11:18:52.863Z,4.00
2022-11-24T11:22:14.658Z,3.97
2022-11-24T11:25:27.750Z,3.88
2022-11-24T11:28:36.231Z,2.92
2022-11-24T11:31:40.305Z,3.17
2022-11-24T11:34:43.829Z,3.55
2022-11-24T11:37:49.846Z,3.10
2022-11-24T11:40:52.851Z,3.25
2022-11-24T11:44:28.015Z,3.20
2022-11-24T11:47:38.502Z,3.25
2022-11-24T11:51:28.284Z,3.38
2022-11-24T11:54:37.418Z,2.80
2022-11-24T11:57:58.952Z,4.25
2022-11-24T12:01:05.160Z,3.28
2022-11-24T12:04:21.787Z,3.30
2022-11-24T12:13:17.522Z,2.50
2022-11-24T12:16:49.473Z,2.92
2022-11-24T12:20:03.465Z,2.47
2022-11-24T12:23:26.727Z,7.78
2022-11-24T12:26:42.262Z,5.38
2022-11-24T12:29:51.704Z,7.40
2022-11-24T12:33:26.102Z,2.80
2022-11-24T12:36:55.538Z,2.67
2022-11-24T12:40:12.732Z,2.55
2022-11-24T12:43:33.743Z,1.98
2022-11-24T12:46:57.516Z,2.10
2022-11-24T12:50:09.234Z,2.50
2022-11-24T12:53:24.517Z,2.92
2022-11-24T12:57:07.772Z,1.85
2022-11-24T13:00:21.997Z,2.20
2022-11-24T13:03:24.739Z,2.60
2022-11-24T13:06:49.286Z,2.30
2022-11-24T13:14:16.827Z,2.53
2022-11-24T13:17:50.311Z,4.20
2022-11-24T13:20:57.428Z,3.40
2022-11-24T13:24:06.458Z,3.60
2022-11-24T13:27:26.859Z,4.00
2022-11-24T13:30:35.948Z,4.22
2022-11-24T13:33:42.123Z,4.07
2022-11-24T13:36:53.815Z,3.50
2022-11-24T13:39:59.496Z,3.97
2022-11-24T13:43:02.866Z,4.07
2022-11-24T13:46:09.910Z,4.50
2022-11-24T13:49:21.037Z,4.68
2022-11-24T13:52:39.687Z,4.37
2022-11-24T13:55:56.602Z,4.10
2022-11-24T13:59:03.261Z,4.15
2022-11-24T14:02:21.939Z,4.60
2022-11-24T14:05:38.010Z,5.20
2022-11-24T14:08:41.306Z,6.03
2022-11-24T14:11:47.000Z,5.57
2022-11-24T14:14:57.343Z,5.40
2022-11-24T14:18:00.355Z,5.38
2022-11-24T14:21:27.978Z,6.00
2022-11-24T14:24:39.698Z,5.70
2022-11-24T14:27:43.068Z,4.97
2022-11-24T14:30:50.438Z,5.00
2022-11-24T14:34:11.436Z,4.05
2022-11-24T14:37:14.236Z,4.15
2022-11-24T14:40:45.119Z,4.17
2022-11-24T14:43:47.859Z,4.00
2022-11-24T14:46:51.631Z,4.32
2022-11-24T14:49:55.779Z,2.88
2022-11-24T14:52:59.308Z,2.60
2022-11-24T14:56:36.083Z,3.57
2022-11-24T14:59:39.658Z,2.95
2022-11-24T15:02:48.573Z,3.40
2022-11-24T15:06:00.614Z,2.90
2022-11-24T15:09:03.608Z,2.83
2022-11-24T15:12:08.835Z,4.33
2022-11-24T15:15:14.820Z,3.95
2022-11-24T15:18:31.651Z,3.35
2022-11-24T15:21:36.787Z,3.50
2022-11-24T15:24:51.407Z,2.38
2022-11-24T15:27:54.449Z,2.80
2022-11-24T15:31:02.196Z,2.30
2022-11-24T15:34:05.100Z,3.45
2022-11-24T15:37:10.881Z,2.88
2022-11-24T15:40:14.310Z,3.67
2022-11-24T15:43:30.927Z,5.93
2022-11-24T15:46:38.451Z,12.32
2022-11-24T15:49:41.647Z,9.35
2022-11-24T15:52:45.307Z,5.88
2022-11-24T15:55:48.916Z,5.30
2022-11-24T15:58:52.883Z,4.23
2022-11-24T16:01:55.680Z,4.68
2022-11-24T16:04:59.376Z,5.40
2022-11-24T16:08:02.169Z,5.88
2022-11-24T16:11:04.919Z,6.32
2022-11-24T16:14:07.698Z,5.00
2022-11-24T16:17:10.561Z,5.30
2022-11-24T16:20:13.670Z,5.55
2022-11-24T16:23:16.870Z,4.30
2022-11-24T16:26:19.691Z,4.47
2022-11-24T16:29:23.900Z,3.30
2022-11-24T16:32:26.622Z,3.33
2022-11-24T16:35:29.319Z,4.90
2022-11-24T16:38:32.593Z,5.38
2022-11-24T16:41:35.699Z,5.53
2022-11-24T16:44:38.683Z,4.63
2022-11-24T16:47:43.074Z,5.20
2022-11-24T16:50:46.027Z,4.70
2022-11-24T16:53:56.616Z,6.07
2022-11-24T16:56:59.454Z,7.35
2022-11-24T17:00:02.451Z,8.80
2022-11-24T17:03:05.745Z,7.28
2022-11-24T17:06:15.931Z,8.27
2022-11-24T17:09:19.235Z,7.10
2022-11-24T17:12:22.105Z,6.80
2022-11-24T17:15:33.707Z,6.37
2022-11-24T17:18:39.138Z,8.23
2022-11-24T17:21:43.309Z,7.78
2022-11-24T17:24:46.169Z,8.73
2022-11-24T17:27:49.055Z,11.23
2022-11-24T17:30:52.134Z,10.00
2022-11-24T17:33:57.516Z,7.13
2022-11-24T17:37:00.518Z,7.72
2022-11-24T17:40:27.372Z,10.68
2022-11-24T17:43:27.818Z,23.98
2022-11-24T17:46:31.556Z,26.47
2022-11-24T17:49:34.472Z,18.70
2022-11-24T17:52:37.417Z,18.10
2022-11-24T17:55:41.040Z,13.73
2022-11-24T17:58:44.783Z,11.30
2022-11-24T18:01:47.841Z,13.80
2022-11-24T18:04:50.808Z,12.77
2022-11-24T18:07:55.350Z,12.10
2022-11-24T18:11:04.201Z,9.30
2022-11-24T18:14:07.314Z,8.52
2022-11-24T18:17:10.518Z,8.17
2022-11-24T18:20:18.948Z,6.63
2022-11-24T18:23:21.917Z,7.15
2022-11-24T18:26:25.050Z,7.85
2022-11-24T18:29:28.032Z,10.95
2022-11-24T18:32:32.725Z,12.90
2022-11-24T18:35:35.942Z,13.68
2022-11-24T18:38:39.346Z,11.18
2022-11-24T18:41:42.144Z,10.68
2022-11-24T18:44:48.603Z,10.75
2022-11-24T18:47:54.178Z,10.67
2022-11-24T18:50:57.672Z,9.93
2022-11-24T18:54:03.115Z,9.93
2022-11-24T18:57:06.360Z,11.45
2022-11-24T19:00:10.576Z,13.23
2022-11-24T19:03:14.924Z,10.33
2022-11-24T19:06:21.409Z,9.80
2022-11-24T19:09:25.653Z,9.10
2022-11-24T19:12:29.088Z,7.05
2022-11-24T19:15:34.301Z,5.78
2022-11-24T19:18:37.383Z,6.10
2022-11-24T19:21:41.273Z,6.93
2022-11-24T19:24:47.456Z,7.00
2022-11-24T19:27:50.708Z,7.63
2022-11-24T19:30:53.917Z,7.72
2022-11-24T19:33:58.966Z,8.43
2022-11-24T19:37:02.052Z,11.13
2022-11-24T19:40:06.340Z,10.20
2022-11-24T19:43:09.182Z,7.35
2022-11-24T19:46:15.198Z,7.70
2022-11-24T19:49:18.290Z,7.70
2022-11-24T19:52:21.719Z,8.68
2022-11-24T19:55:24.888Z,8.75
2022-11-24T19:58:29.988Z,5.43
2022-11-24T20:01:36.223Z,6.10
2022-11-24T20:04:41.439Z,5.53
2022-11-24T20:07:44.740Z,5.50
2022-11-24T20:10:47.513Z,5.70
2022-11-24T20:13:51.837Z,5.18
2022-11-24T20:16:54.942Z,5.25
2022-11-24T20:19:58.065Z,7.80
2022-11-24T20:23:01.313Z,9.35
2022-11-24T20:26:13.636Z,9.25
2022-11-24T20:29:18.456Z,9.13
2022-11-24T20:32:21.526Z,8.45
2022-11-24T20:35:24.597Z,7.57
2022-11-24T20:38:29.433Z,7.70
2022-11-24T20:41:34.953Z,7.07
2022-11-24T20:44:38.257Z,7.75
2022-11-24T20:47:41.075Z,6.10
2022-11-24T20:50:49.746Z,6.13
2022-11-24T20:53:57.698Z,7.43
2022-11-24T20:57:00.751Z,7.90
2022-11-24T21:00:04.573Z,8.55
2022-11-24T21:03:08.557Z,7.80
2022-11-24T21:06:13.304Z,7.20
2022-11-24T21:09:17.135Z,8.10
2022-11-24T21:12:20.014Z,8.40
2022-11-24T21:15:24.015Z,8.82
2022-11-24T21:18:27.138Z,8.75
2022-11-24T21:21:34.352Z,8.17
2022-11-24T21:24:37.346Z,8.32
2022-11-24T21:27:40.721Z,7.80
2022-11-24T21:30:43.609Z,6.80
2022-11-24T21:33:48.524Z,4.78
2022-11-24T21:36:51.337Z,5.63
2022-11-24T21:39:54.097Z,5.20
2022-11-24T21:42:59.506Z,4.60
2022-11-24T21:46:07.292Z,4.88
2022-11-24T21:49:10.966Z,5.63
2022-11-24T21:52:13.847Z,5.47
2022-11-24T21:55:16.897Z,6.13
2022-11-24T21:58:19.729Z,6.75
2022-11-24T22:01:25.936Z,7.35
2022-11-24T22:04:28.920Z,7.72
2022-11-24T22:07:34.875Z,7.23
2022-11-24T22:10:37.753Z,7.35
2022-11-24T22:13:41.388Z,7.43
2022-11-24T22:16:44.391Z,7.35
2022-11-24T22:19:48.155Z,7.47
2022-11-24T22:22:50.965Z,6.50
2022-11-24T22:25:53.764Z,6.18
2022-11-24T22:28:58.203Z,7.60
2022-11-24T22:32:01.088Z,6.72
2022-11-24T22:35:04.431Z,6.90
2022-11-24T22:38:07.265Z,5.60
2022-11-24T22:41:12.457Z,5.30
2022-11-24T22:44:15.202Z,4.85
2022-11-24T22:47:17.915Z,5.03
2022-11-24T22:50:20.838Z,4.90
2022-11-24T22:53:23.583Z,4.07
2022-11-24T22:56:32.468Z,3.03
2022-11-24T22:59:35.900Z,2.30
2022-11-24T23:02:38.609Z,2.80
2022-11-24T23:05:41.753Z,3.63
2022-11-24T23:08:44.724Z,4.77
2022-11-24T23:11:47.598Z,2.65
2022-11-24T23:14:50.414Z,2.47
2022-11-24T23:17:53.168Z,3.53
2022-11-24T23:20:56.810Z,3.83
2022-11-24T23:24:01.776Z,2.87
2022-11-24T23:27:05.562Z,2.20
2022-11-24T23:30:08.939Z,2.33
2022-11-24T23:33:11.719Z,1.65
2022-11-24T23:36:17.484Z,1.92
2022-11-24T23:39:20.334Z,1.77
2022-11-24T23:42:23.201Z,1.83
2022-11-24T23:45:26.010Z,1.92
2022-11-24T23:48:29.263Z,1.70
2022-11-24T23:51:33.574Z,1.83
2022-11-24T23:54:36.649Z,2.40
2022-11-24T23:57:39.607Z,2.20
